createdAt,value
2019-03-12T00:00:22.810Z,99.90
2019-03-12T00:02:51.403Z,99.90
2019-03-12T00:05:20.004Z,99.90
2019-03-12T00:07:48.471Z,99.90
2019-03-12T00:10:17.003Z,99.90
2019-03-12T00:12:45.672Z,99.90
2019-03-12T00:15:14.839Z,99.90
2019-03-12T00:17:43.381Z,99.80
2019-03-12T00:20:12.042Z,99.90
2019-03-12T00:22:40.589Z,99.90
2019-03-12T00:25:09.238Z,99.90
2019-03-12T00:27:37.683Z,99.90
2019-03-12T00:30:07.975Z,99.90
2019-03-12T00:32:36.561Z,99.80
2019-03-12T00:35:08.583Z,99.80
2019-03-12T00:37:37.119Z,99.90
2019-03-12T00:40:07.530Z,99.80
2019-03-12T00:42:35.972Z,99.70
2019-03-12T00:45:07.047Z,99.90
2019-03-12T00:47:35.574Z,99.80
2019-03-12T00:50:06.151Z,99.70
2019-03-12T00:52:34.602Z,99.70
2019-03-12T00:55:03.289Z,99.70
2019-03-12T00:57:31.823Z,99.70
2019-03-12T01:00:00.435Z,99.60
2019-03-12T01:02:28.990Z,99.60
2019-03-12T01:04:57.503Z,99.60
2019-03-12T01:07:26.058Z,99.90
2019-03-12T01:09:54.591Z,99.70
2019-03-12T01:12:23.054Z,99.60
2019-03-12T01:14:51.501Z,99.70
2019-03-12T01:17:20.024Z,99.60
2019-03-12T01:19:48.560Z,99.60
2019-03-12T01:22:17.087Z,99.60
2019-03-12T01:24:45.622Z,99.70
2019-03-12T01:27:14.148Z,99.80
2019-03-12T01:29:42.687Z,99.70
2019-03-12T01:32:11.129Z,99.80
2019-03-12T01:34:39.672Z,99.90
2019-03-12T01:37:08.194Z,99.90
2019-03-12T01:39:36.730Z,99.90
2019-03-12T01:42:05.243Z,99.90
2019-03-12T01:44:33.707Z,99.90
2019-03-12T01:47:02.233Z,99.90
2019-03-12T01:49:30.775Z,99.90
2019-03-12T01:51:59.360Z,99.90
2019-03-12T01:54:27.843Z,99.90
2019-03-12T01:56:56.434Z,99.80
2019-03-12T01:59:24.901Z,99.80
2019-03-12T02:01:53.347Z,99.90
2019-03-12T02:04:21.794Z,99.80
2019-03-12T02:06:50.262Z,99.90
2019-03-12T02:09:18.802Z,99.90
2019-03-12T02:11:47.322Z,99.90
2019-03-12T02:14:24.073Z,99.90
2019-03-12T02:16:53.034Z,99.90
2019-03-12T02:19:21.702Z,99.90
2019-03-12T02:21:50.242Z,99.90
2019-03-12T02:24:18.904Z,99.90
2019-03-12T02:26:47.534Z,99.90
2019-03-12T02:29:16.046Z,99.90
2019-03-12T02:31:44.541Z,99.90
2019-03-12T02:34:13.103Z,99.90
2019-03-12T02:36:41.656Z,99.90
2019-03-12T02:39:10.511Z,99.90
2019-03-12T02:41:39.050Z,99.90
2019-03-12T02:44:07.573Z,99.90
2019-03-12T02:46:36.157Z,99.90
2019-03-12T02:49:09.056Z,99.90
2019-03-12T02:51:35.432Z,99.90
2019-03-12T02:54:04.047Z,99.90
2019-03-12T02:56:32.565Z,99.90
2019-03-12T02:59:01.108Z,99.90
2019-03-12T03:01:29.627Z,99.90
2019-03-12T03:03:58.152Z,99.90
2019-03-12T03:06:37.127Z,99.90
2019-03-12T03:09:06.786Z,99.90
2019-03-12T03:11:35.320Z,99.90
2019-03-12T03:14:03.910Z,99.90
2019-03-12T03:16:32.460Z,99.90
2019-03-12T03:19:00.977Z,99.90
2019-03-12T03:21:29.520Z,99.90
2019-03-12T03:23:58.043Z,99.90
2019-03-12T03:26:26.575Z,99.90
2019-03-12T03:28:55.128Z,99.90
2019-03-12T03:31:23.664Z,99.90
2019-03-12T03:33:52.186Z,99.90
2019-03-12T03:36:20.720Z,99.90
2019-03-12T03:38:49.310Z,99.90
2019-03-12T03:41:18.035Z,99.90
2019-03-12T03:43:46.546Z,99.90
2019-03-12T03:46:15.133Z,99.90
2019-03-12T03:48:43.740Z,99.90
2019-03-12T03:51:12.363Z,99.90
2019-03-12T03:53:40.901Z,99.90
2019-03-12T03:56:09.427Z,99.90
2019-03-12T03:58:37.965Z,99.90
2019-03-12T04:01:06.551Z,99.90
2019-03-12T04:03:35.072Z,99.90
2019-03-12T04:06:03.683Z,99.90
2019-03-12T04:08:32.198Z,99.90
2019-03-12T04:11:00.746Z,99.90
2019-03-12T04:13:29.281Z,99.90
2019-03-12T04:15:57.815Z,99.90
2019-03-12T04:18:26.331Z,99.90
2019-03-12T04:20:54.876Z,99.90
2019-03-12T04:23:23.399Z,99.90
2019-03-12T04:25:51.920Z,99.90
2019-03-12T04:28:20.452Z,99.90
2019-03-12T04:30:49.047Z,99.90
2019-03-12T04:33:52.303Z,99.90
2019-03-12T04:36:20.819Z,99.90
2019-03-12T04:38:49.369Z,99.90
2019-03-12T04:41:17.951Z,99.90
2019-03-12T04:43:46.492Z,99.90
2019-03-12T04:46:15.130Z,99.90
2019-03-12T04:48:43.656Z,99.90
2019-03-12T04:51:12.250Z,99.90
2019-03-12T04:53:40.766Z,99.90
2019-03-12T04:56:09.308Z,99.80
2019-03-12T04:58:37.835Z,99.70
2019-03-12T05:01:06.448Z,99.80
2019-03-12T05:03:34.966Z,99.70
2019-03-12T05:06:03.574Z,99.70
2019-03-12T05:08:32.092Z,99.60
2019-03-12T05:11:00.696Z,99.60
2019-03-12T05:13:29.219Z,99.50
2019-03-12T05:15:58.212Z,99.80
2019-03-12T05:18:26.711Z,99.90
2019-03-12T05:20:55.154Z,99.70
2019-03-12T05:23:23.694Z,99.90
2019-03-12T05:25:52.208Z,99.90
2019-03-12T05:28:20.746Z,99.90
2019-03-12T05:30:49.273Z,99.90
2019-03-12T05:33:17.807Z,99.90
2019-03-12T05:35:46.327Z,99.90
2019-03-12T05:38:14.776Z,99.90
2019-03-12T05:40:43.310Z,99.90
2019-03-12T05:43:11.759Z,99.90
2019-03-12T05:45:40.299Z,99.90
2019-03-12T05:48:08.834Z,99.90
2019-03-12T05:50:37.290Z,99.90
2019-03-12T05:53:15.500Z,99.90
2019-03-12T05:55:44.106Z,99.90
2019-03-12T05:58:12.694Z,99.90
2019-03-12T06:00:41.239Z,99.90
2019-03-12T06:03:09.693Z,99.90
2019-03-12T06:05:38.237Z,99.90
2019-03-12T06:08:06.755Z,99.90
2019-03-12T06:10:35.219Z,99.90
2019-03-12T06:13:03.666Z,99.90
2019-03-12T06:15:32.198Z,99.90
2019-03-12T06:18:00.644Z,99.90
2019-03-12T06:20:29.187Z,99.90
2019-03-12T06:22:57.715Z,99.90
2019-03-12T06:25:26.230Z,99.90
2019-03-12T06:27:54.766Z,99.90
2019-03-12T06:30:25.754Z,99.90
2019-03-12T06:32:58.043Z,99.90
2019-03-12T06:35:31.363Z,99.90
2019-03-12T06:38:10.213Z,99.90
2019-03-12T06:40:55.395Z,99.90
2019-03-12T06:43:31.443Z,99.90
2019-03-12T06:46:01.612Z,99.90
2019-03-12T06:48:40.864Z,99.90
2019-03-12T06:51:26.147Z,99.90
2019-03-12T06:54:12.733Z,99.90
2019-03-12T06:56:48.641Z,99.90
2019-03-12T06:59:30.828Z,99.90
2019-03-12T07:02:17.554Z,99.90
2019-03-12T07:04:56.955Z,99.90
2019-03-12T07:07:45.924Z,99.90
2019-03-12T07:10:22.663Z,99.90
2019-03-12T07:12:55.703Z,99.90
2019-03-12T07:15:31.399Z,99.90
2019-03-12T07:18:10.443Z,99.90
2019-03-12T07:20:43.597Z,99.90
2019-03-12T07:23:25.784Z,99.90
2019-03-12T07:25:58.696Z,99.90
2019-03-12T07:28:28.863Z,99.90
2019-03-12T07:31:04.446Z,99.90
2019-03-12T07:33:37.582Z,99.90
2019-03-12T07:36:07.752Z,99.90
2019-03-12T07:38:49.919Z,99.60
2019-03-12T07:41:32.188Z,99.50
2019-03-12T07:44:13.406Z,99.90
2019-03-12T07:46:46.262Z,99.90
2019-03-12T07:49:16.356Z,99.90
2019-03-12T07:52:03.183Z,99.60
2019-03-12T07:54:45.295Z,98.80
2019-03-12T07:57:21.051Z,98.00
2019-03-12T07:59:51.200Z,96.30
2019-03-12T08:02:21.383Z,94.80
2019-03-12T08:04:54.161Z,94.50
2019-03-12T08:07:41.067Z,94.20
2019-03-12T08:10:21.473Z,94.00
2019-03-12T08:13:00.731Z,92.90
2019-03-12T08:15:30.901Z,91.80
2019-03-12T08:18:03.595Z,92.30
2019-03-12T08:20:39.736Z,92.40
2019-03-12T08:23:09.939Z,91.40
2019-03-12T08:25:46.116Z,90.90
2019-03-12T08:28:16.241Z,90.20
2019-03-12T08:30:46.405Z,87.60
2019-03-12T08:33:35.480Z,86.90
2019-03-12T08:36:05.682Z,85.40
2019-03-12T08:38:52.169Z,83.40
2019-03-12T08:41:25.046Z,82.20
2019-03-12T08:43:55.234Z,80.60
2019-03-12T08:46:25.334Z,74.60
2019-03-12T08:48:58.184Z,72.10
2019-03-12T08:51:34.086Z,75.90
2019-03-12T08:54:21.440Z,77.10
2019-03-12T08:57:08.350Z,77.50
2019-03-12T08:59:44.258Z,74.50
2019-03-12T09:02:14.490Z,76.10
2019-03-12T09:04:56.479Z,74.80
2019-03-12T09:07:26.583Z,70.60
2019-03-12T09:09:56.774Z,69.60
2019-03-12T09:12:29.923Z,66.70
2019-03-12T09:15:02.540Z,67.10
2019-03-12T09:17:41.472Z,65.20
2019-03-12T09:20:28.844Z,65.90
2019-03-12T09:23:15.278Z,64.20
2019-03-12T09:25:57.469Z,66.20
2019-03-12T09:28:36.193Z,68.60
2019-03-12T09:31:12.653Z,68.10
2019-03-12T09:33:51.381Z,65.10
2019-03-12T09:36:27.668Z,64.80
2019-03-12T09:39:13.998Z,65.40
2019-03-12T09:42:00.286Z,63.20
2019-03-12T09:44:39.429Z,64.30
2019-03-12T09:47:15.146Z,62.70
2019-03-12T09:49:45.320Z,59.50
2019-03-12T09:52:24.461Z,60.80
2019-03-12T09:54:54.622Z,58.90
2019-03-12T09:57:24.731Z,56.80
2019-03-12T10:00:00.771Z,56.00
2019-03-12T10:02:30.960Z,57.90
2019-03-12T10:05:10.383Z,56.70
2019-03-12T10:07:55.406Z,54.00
2019-03-12T10:10:41.694Z,54.90
2019-03-12T10:13:14.319Z,55.30
2019-03-12T10:15:44.507Z,53.40
2019-03-12T10:18:17.343Z,54.20
2019-03-12T10:20:59.738Z,51.40
2019-03-12T10:23:29.920Z,53.60
2019-03-12T10:26:03.164Z,52.50
2019-03-12T10:28:38.858Z,52.60
2019-03-12T10:31:12.117Z,51.50
2019-03-12T10:33:42.299Z,52.30
2019-03-12T10:36:12.642Z,48.90
2019-03-12T10:39:08.668Z,52.90
2019-03-12T10:41:50.787Z,49.40
2019-03-12T10:44:33.115Z,47.40
2019-03-12T10:47:03.212Z,49.40
2019-03-12T10:49:37.538Z,46.80
2019-03-12T10:52:02.119Z,45.60
2019-03-12T10:54:30.627Z,44.20
2019-03-12T10:56:59.101Z,46.20
2019-03-12T10:59:27.643Z,46.40
2019-03-12T11:01:56.255Z,48.10
2019-03-12T11:04:24.732Z,49.30
2019-03-12T11:06:53.275Z,47.80
2019-03-12T11:09:21.867Z,46.20
2019-03-12T11:11:50.414Z,44.00
2019-03-12T11:14:18.876Z,45.50
2019-03-12T11:16:47.489Z,42.20
2019-03-12T11:19:16.011Z,47.70
2019-03-12T11:21:44.559Z,44.60
2019-03-12T11:24:13.156Z,43.90
2019-03-12T11:26:41.703Z,45.50
2019-03-12T11:29:10.240Z,46.00
2019-03-12T11:31:38.779Z,43.70
2019-03-12T11:34:07.240Z,43.00
2019-03-12T11:36:35.854Z,47.30
2019-03-12T11:39:05.823Z,45.20
2019-03-12T11:41:34.558Z,48.00
2019-03-12T11:44:03.262Z,44.60
2019-03-12T11:46:41.417Z,45.30
2019-03-12T11:49:01.963Z,44.20
2019-03-12T11:51:30.519Z,43.60
2019-03-12T11:53:59.036Z,45.30
2019-03-12T11:56:27.583Z,46.30
2019-03-12T11:58:56.333Z,45.20
2019-03-12T12:01:24.959Z,44.60
2019-03-12T12:03:53.488Z,41.80
2019-03-12T12:06:22.463Z,42.50
2019-03-12T12:08:51.212Z,44.30
2019-03-12T12:11:19.762Z,48.30
2019-03-12T12:13:48.287Z,42.40
2019-03-12T12:16:16.974Z,42.80
2019-03-12T12:18:45.508Z,43.10
2019-03-12T12:21:14.131Z,44.00
2019-03-12T12:23:42.655Z,41.30
2019-03-12T12:26:11.203Z,41.00
2019-03-12T12:28:39.732Z,39.90
2019-03-12T12:31:08.296Z,43.50
2019-03-12T12:33:36.805Z,42.10
2019-03-12T12:36:05.363Z,42.10
2019-03-12T12:38:33.891Z,41.30
2019-03-12T12:41:02.422Z,39.00
2019-03-12T12:43:30.895Z,40.10
2019-03-12T12:45:59.347Z,39.70
2019-03-12T12:48:27.970Z,39.40
2019-03-12T12:51:03.202Z,40.60
2019-03-12T12:53:26.688Z,36.30
2019-03-12T12:55:55.288Z,39.90
2019-03-12T12:58:24.875Z,39.30
2019-03-12T13:00:53.415Z,37.70
2019-03-12T13:03:22.104Z,35.20
2019-03-12T13:05:50.637Z,35.80
2019-03-12T13:08:19.390Z,36.80
2019-03-12T13:10:47.842Z,38.70
2019-03-12T13:13:16.403Z,39.60
2019-03-12T13:15:44.936Z,36.80
2019-03-12T13:18:22.316Z,37.10
2019-03-12T13:20:50.915Z,37.60
2019-03-12T13:23:19.457Z,36.70
2019-03-12T13:25:47.996Z,36.70
2019-03-12T13:28:16.518Z,34.60
2019-03-12T13:30:45.212Z,35.30
2019-03-12T13:33:13.799Z,35.40
2019-03-12T13:35:42.343Z,33.10
2019-03-12T13:38:10.935Z,35.30
2019-03-12T13:40:39.484Z,38.20
2019-03-12T13:43:08.029Z,38.10
2019-03-12T13:45:36.639Z,35.70
2019-03-12T13:48:05.425Z,33.70
2019-03-12T13:50:34.060Z,34.10
2019-03-12T13:53:02.689Z,34.00
2019-03-12T13:55:31.254Z,35.40
2019-03-12T13:57:59.804Z,34.80
2019-03-12T14:00:28.868Z,34.60
2019-03-12T14:02:57.558Z,36.10
2019-03-12T14:05:26.008Z,36.70
2019-03-12T14:07:54.699Z,33.80
2019-03-12T14:10:29.393Z,35.60
2019-03-12T14:12:58.286Z,33.50
2019-03-12T14:15:31.869Z,33.00
2019-03-12T14:18:00.759Z,36.30
2019-03-12T14:20:50.085Z,35.70
2019-03-12T14:23:27.256Z,34.60
2019-03-12T14:25:55.957Z,35.00
2019-03-12T14:28:24.647Z,36.20
2019-03-12T14:30:53.234Z,38.20
2019-03-12T14:33:21.788Z,34.90
2019-03-12T14:35:52.175Z,36.20
2019-03-12T14:38:20.720Z,35.20
2019-03-12T14:40:49.492Z,35.10
2019-03-12T14:43:18.169Z,38.10
2019-03-12T14:45:51.358Z,35.30
2019-03-12T14:48:48.416Z,34.70
2019-03-12T14:51:31.926Z,34.00
2019-03-12T14:54:06.319Z,33.70
2019-03-12T14:56:38.167Z,33.50
2019-03-12T14:59:06.854Z,32.20
2019-03-12T15:01:35.563Z,32.80
2019-03-12T15:04:04.154Z,30.70
2019-03-12T15:06:32.928Z,30.60
2019-03-12T15:09:01.494Z,32.40
2019-03-12T15:11:30.163Z,33.60
2019-03-12T15:13:58.719Z,32.70
2019-03-12T15:16:27.251Z,34.30
2019-03-12T15:18:55.884Z,32.40
2019-03-12T15:21:24.487Z,32.10
2019-03-12T15:23:53.040Z,30.90
2019-03-12T15:26:21.578Z,31.20
2019-03-12T15:28:50.144Z,32.20
2019-03-12T15:31:18.744Z,32.00
2019-03-12T15:33:47.303Z,32.10
2019-03-12T15:36:15.900Z,33.30
2019-03-12T15:38:44.443Z,32.40
2019-03-12T15:41:12.977Z,31.20
2019-03-12T15:43:41.536Z,32.20
2019-03-12T15:46:10.055Z,33.00
2019-03-12T15:48:38.535Z,33.20
2019-03-12T15:51:07.062Z,33.90
2019-03-12T15:53:35.619Z,34.20
2019-03-12T15:56:04.146Z,34.20
2019-03-12T15:58:32.691Z,34.60
2019-03-12T16:01:02.686Z,34.80
2019-03-12T16:03:31.611Z,34.30
2019-03-12T16:06:00.145Z,34.20
2019-03-12T16:08:28.693Z,34.30
2019-03-12T16:10:58.650Z,34.40
2019-03-12T16:13:27.404Z,35.70
2019-03-12T16:15:56.008Z,36.00
2019-03-12T16:18:24.822Z,36.80
2019-03-12T16:20:53.418Z,36.40
2019-03-12T16:23:21.950Z,37.50
2019-03-12T16:25:50.475Z,37.50
2019-03-12T16:28:19.095Z,38.20
2019-03-12T16:30:47.611Z,38.70
2019-03-12T16:33:16.154Z,38.90
2019-03-12T16:35:44.680Z,39.40
2019-03-12T16:38:13.299Z,39.50
2019-03-12T16:40:41.823Z,39.80
2019-03-12T16:43:10.370Z,39.90
2019-03-12T16:45:38.890Z,40.10
2019-03-12T16:48:07.443Z,40.60
2019-03-12T16:50:36.076Z,41.00
2019-03-12T16:53:04.689Z,40.90
2019-03-12T16:55:33.337Z,41.10
2019-03-12T16:58:01.881Z,41.50
2019-03-12T17:00:30.551Z,41.50
2019-03-12T17:02:59.166Z,41.50
2019-03-12T17:05:27.693Z,41.90
2019-03-12T17:07:56.374Z,41.80
2019-03-12T17:10:24.978Z,41.90
2019-03-12T17:12:53.515Z,42.30
2019-03-12T17:15:24.686Z,42.60
2019-03-12T17:17:53.301Z,42.90
2019-03-12T17:20:22.558Z,43.30
2019-03-12T17:22:51.173Z,43.60
2019-03-12T17:25:19.863Z,43.70
2019-03-12T17:27:51.471Z,43.90
2019-03-12T17:30:22.522Z,43.80
2019-03-12T17:32:51.209Z,45.70
2019-03-12T17:35:36.842Z,46.50
2019-03-12T17:38:05.324Z,47.80
2019-03-12T17:40:33.919Z,47.30
2019-03-12T17:43:02.454Z,48.10
2019-03-12T17:45:31.005Z,48.30
2019-03-12T17:47:59.534Z,47.90
2019-03-12T17:50:28.153Z,47.30
2019-03-12T17:52:56.687Z,47.60
2019-03-12T17:55:25.231Z,47.20
2019-03-12T17:57:53.768Z,46.90
2019-03-12T18:00:30.762Z,46.80
2019-03-12T18:02:59.470Z,46.30
2019-03-12T18:05:28.011Z,46.20
2019-03-12T18:07:56.527Z,45.90
2019-03-12T18:10:25.111Z,45.80
2019-03-12T18:12:53.676Z,46.40
2019-03-12T18:15:22.484Z,47.80
2019-03-12T18:17:51.287Z,48.20
2019-03-12T18:20:23.723Z,48.50
2019-03-12T18:22:52.642Z,48.10
2019-03-12T18:25:32.368Z,48.00
2019-03-12T18:28:00.918Z,48.60
2019-03-12T18:30:29.522Z,47.70
2019-03-12T18:32:58.130Z,47.80
2019-03-12T18:35:26.689Z,47.10
2019-03-12T18:37:55.292Z,47.20
2019-03-12T18:40:26.026Z,46.50
2019-03-12T18:42:54.724Z,47.00
2019-03-12T18:45:34.314Z,46.50
2019-03-12T18:48:02.930Z,46.40
2019-03-12T18:50:31.388Z,45.90
2019-03-12T18:52:59.938Z,45.80
2019-03-12T18:55:37.557Z,45.80
2019-03-12T18:58:06.175Z,45.70
2019-03-12T19:00:35.576Z,45.90
2019-03-12T19:03:04.263Z,45.30
2019-03-12T19:05:32.798Z,45.20
2019-03-12T19:08:01.417Z,45.30
2019-03-12T19:10:29.949Z,44.80
2019-03-12T19:12:58.569Z,44.90
2019-03-12T19:15:27.173Z,45.10
2019-03-12T19:17:55.727Z,44.80
2019-03-12T19:20:24.335Z,44.60
2019-03-12T19:22:52.971Z,44.60
2019-03-12T19:25:38.325Z,44.50
2019-03-12T19:28:07.057Z,43.80
2019-03-12T19:30:35.795Z,43.90
2019-03-12T19:33:07.827Z,43.50
2019-03-12T19:35:36.500Z,43.50
2019-03-12T19:38:06.158Z,43.10
2019-03-12T19:40:40.478Z,43.10
2019-03-12T19:43:09.175Z,43.00
2019-03-12T19:45:37.868Z,42.90
2019-03-12T19:48:06.643Z,42.40
2019-03-12T19:50:35.727Z,42.80
2019-03-12T19:53:10.853Z,42.90
2019-03-12T19:55:53.999Z,42.80
2019-03-12T19:58:22.564Z,42.30
2019-03-12T20:00:52.498Z,41.90
2019-03-12T20:03:21.042Z,42.50
2019-03-12T20:05:51.225Z,42.60
2019-03-12T20:08:19.819Z,42.10
2019-03-12T20:11:14.377Z,42.10
2019-03-12T20:13:54.736Z,42.10
2019-03-12T20:16:49.027Z,41.40
2019-03-12T20:19:38.959Z,41.60
2019-03-12T20:22:10.564Z,41.60
2019-03-12T20:25:17.762Z,41.40
2019-03-12T20:28:07.660Z,41.50
2019-03-12T20:30:54.080Z,41.60
2019-03-12T20:33:42.342Z,41.60
2019-03-12T20:36:45.916Z,41.30
2019-03-12T20:39:34.111Z,41.10
2019-03-12T20:42:38.989Z,41.80
2019-03-12T20:45:22.706Z,41.50
2019-03-12T20:48:28.982Z,40.90
2019-03-12T20:51:12.861Z,40.70
2019-03-12T20:54:16.284Z,40.40
2019-03-12T20:57:18.181Z,39.70
2019-03-12T21:00:23.307Z,39.40
2019-03-12T21:03:28.177Z,39.60
2019-03-12T21:06:33.337Z,39.50
2019-03-12T21:09:28.747Z,39.00
2019-03-12T21:12:31.962Z,39.10
2019-03-12T21:15:15.904Z,39.40
2019-03-12T21:18:16.259Z,39.20
2019-03-12T21:21:10.438Z,39.10
2019-03-12T21:23:44.972Z,38.70
2019-03-12T21:26:31.407Z,38.50
2019-03-12T21:29:25.867Z,38.70
2019-03-12T21:31:54.495Z,37.90
2019-03-12T21:34:23.043Z,38.40
2019-03-12T21:36:51.487Z,37.90
2019-03-12T21:39:20.133Z,37.70
2019-03-12T21:41:48.651Z,37.60
2019-03-12T21:44:17.191Z,37.80
2019-03-12T21:46:45.863Z,38.10
2019-03-12T21:49:14.547Z,37.30
2019-03-12T21:51:43.140Z,37.90
2019-03-12T21:54:11.828Z,38.20
2019-03-12T21:56:40.342Z,38.00
2019-03-12T21:59:08.958Z,36.90
2019-03-12T22:01:37.482Z,36.40
2019-03-12T22:04:06.074Z,36.10
2019-03-12T22:06:34.539Z,36.10
2019-03-12T22:09:04.401Z,36.90
2019-03-12T22:11:32.947Z,36.80
2019-03-12T22:14:01.472Z,36.20
2019-03-12T22:16:30.015Z,36.70
2019-03-12T22:18:58.557Z,36.80
2019-03-12T22:21:46.852Z,36.30
2019-03-12T22:24:17.054Z,36.40
2019-03-12T22:26:45.512Z,36.30
2019-03-12T22:29:14.052Z,37.20
2019-03-12T22:31:42.503Z,36.30
2019-03-12T22:34:10.990Z,36.70
2019-03-12T22:36:39.611Z,36.90
2019-03-12T22:39:08.218Z,37.30
2019-03-12T22:41:36.663Z,37.00
2019-03-12T22:44:05.184Z,37.20
2019-03-12T22:46:33.726Z,37.40
2019-03-12T22:49:02.251Z,36.80
2019-03-12T22:51:30.797Z,37.20
2019-03-12T22:53:59.319Z,37.90
2019-03-12T22:56:27.786Z,37.00
2019-03-12T22:58:56.234Z,36.30
2019-03-12T23:01:24.776Z,35.90
2019-03-12T23:03:53.298Z,36.30
2019-03-12T23:06:21.818Z,36.50
2019-03-12T23:08:50.363Z,36.50
2019-03-12T23:11:18.950Z,37.00
2019-03-12T23:13:47.416Z,37.40
2019-03-12T23:16:16.006Z,38.10
2019-03-12T23:18:44.539Z,38.50
2019-03-12T23:21:13.075Z,38.80
2019-03-12T23:23:41.674Z,38.70
2019-03-12T23:26:10.191Z,39.20
2019-03-12T23:28:38.631Z,38.90
2019-03-12T23:31:07.238Z,39.20
2019-03-12T23:33:35.683Z,39.60
2019-03-12T23:36:04.221Z,39.30
2019-03-12T23:38:32.883Z,39.20
2019-03-12T23:41:01.431Z,39.40
2019-03-12T23:43:29.964Z,39.20
2019-03-12T23:45:58.619Z,39.40
2019-03-12T23:48:27.179Z,39.30
2019-03-12T23:50:55.846Z,39.50
2019-03-12T23:53:24.454Z,39.70
2019-03-12T23:55:53.043Z,39.90
2019-03-12T23:58:22.646Z,40.20
